createdAt,value
2023-05-10T00:01:00.029Z,9.88
2023-05-10T00:03:27.192Z,9.85
2023-05-10T00:05:54.232Z,9.81
2023-05-10T00:08:21.454Z,9.77
2023-05-10T00:10:48.568Z,9.74
2023-05-10T00:13:15.729Z,9.74
2023-05-10T00:15:42.526Z,9.73
2023-05-10T00:18:09.501Z,9.73
2023-05-10T00:20:36.297Z,9.73
2023-05-10T00:23:02.986Z,9.76
2023-05-10T00:25:29.951Z,9.80
2023-05-10T00:27:57.666Z,9.83
2023-05-10T00:30:24.652Z,9.86
2023-05-10T00:32:52.192Z,9.90
2023-05-10T00:35:19.108Z,9.93
2023-05-10T00:37:45.932Z,9.93
2023-05-10T00:40:13.272Z,9.92
2023-05-10T00:42:41.329Z,9.88
2023-05-10T00:45:08.562Z,9.82
2023-05-10T00:47:36.808Z,9.79
2023-05-10T00:50:03.793Z,9.76
2023-05-10T00:52:31.093Z,9.71
2023-05-10T00:54:58.869Z,9.66
2023-05-10T00:57:25.691Z,9.61
2023-05-10T00:59:52.635Z,9.57
2023-05-10T01:02:19.505Z,9.52
2023-05-10T01:04:46.797Z,9.50
2023-05-10T01:07:13.721Z,9.49
2023-05-10T01:09:40.557Z,9.47
2023-05-10T01:12:07.633Z,9.45
2023-05-10T01:14:36.715Z,9.43
2023-05-10T01:17:04.329Z,9.40
2023-05-10T01:19:33.294Z,9.39
2023-05-10T01:22:32.225Z,9.37
2023-05-10T01:25:12.295Z,9.34
2023-05-10T01:27:51.851Z,9.32
2023-05-10T01:30:44.097Z,9.35
2023-05-10T01:33:45.607Z,9.40
2023-05-10T01:36:40.603Z,9.44
2023-05-10T01:39:28.585Z,9.47
2023-05-10T01:41:55.649Z,9.49
2023-05-10T01:44:27.498Z,9.47
2023-05-10T01:46:58.949Z,9.45
2023-05-10T01:49:40.952Z,9.43
2023-05-10T01:52:10.830Z,9.40
2023-05-10T01:54:39.539Z,9.37
2023-05-10T01:57:07.881Z,9.34
2023-05-10T01:59:41.127Z,9.32
2023-05-10T02:02:08.363Z,9.30
2023-05-10T02:04:35.979Z,9.30
2023-05-10T02:07:02.777Z,9.28
2023-05-10T02:09:30.429Z,9.29
2023-05-10T02:11:57.910Z,9.30
2023-05-10T02:14:27.324Z,9.33
2023-05-10T02:16:54.442Z,9.35
2023-05-10T02:19:21.289Z,9.34
2023-05-10T02:21:48.102Z,9.32
2023-05-10T02:24:16.054Z,9.31
2023-05-10T02:26:42.847Z,9.30
2023-05-10T02:29:09.628Z,9.27
2023-05-10T02:31:39.283Z,9.25
2023-05-10T02:34:06.710Z,9.25
2023-05-10T02:36:33.908Z,9.25
2023-05-10T02:39:00.997Z,9.27
2023-05-10T02:41:28.170Z,9.29
2023-05-10T02:43:56.702Z,9.32
2023-05-10T02:46:25.423Z,9.34
2023-05-10T02:48:52.431Z,9.35
2023-05-10T02:51:19.492Z,9.34
2023-05-10T02:53:47.211Z,9.33
2023-05-10T02:56:43.629Z,9.30
2023-05-10T02:59:10.471Z,9.28
2023-05-10T03:01:37.398Z,9.28
2023-05-10T03:04:04.470Z,9.31
2023-05-10T03:06:32.037Z,9.36
2023-05-10T03:08:58.889Z,9.42
2023-05-10T03:11:51.996Z,9.47
2023-05-10T03:14:30.549Z,9.51
2023-05-10T03:17:01.456Z,9.51
2023-05-10T03:19:33.480Z,9.48
2023-05-10T03:22:02.895Z,9.46
2023-05-10T03:24:30.639Z,9.47
2023-05-10T03:26:59.609Z,9.49
2023-05-10T03:29:26.502Z,9.51
2023-05-10T03:31:53.659Z,9.54
2023-05-10T03:34:24.614Z,9.59
2023-05-10T03:36:52.051Z,9.64
2023-05-10T03:39:18.977Z,9.69
2023-05-10T03:41:49.357Z,9.72
2023-05-10T03:44:16.894Z,9.76
2023-05-10T03:46:44.522Z,9.78
2023-05-10T03:49:11.486Z,9.80
2023-05-10T03:51:38.320Z,9.80
2023-05-10T03:54:05.344Z,9.83
2023-05-10T03:56:33.055Z,9.88
2023-05-10T03:59:01.122Z,9.93
2023-05-10T04:01:27.854Z,10.01
2023-05-10T04:03:54.964Z,10.10
2023-05-10T04:06:21.817Z,10.22
2023-05-10T04:08:48.727Z,10.35
2023-05-10T04:11:15.785Z,10.46
2023-05-10T04:13:43.496Z,10.56
2023-05-10T04:16:10.777Z,10.70
2023-05-10T04:18:37.627Z,10.85
2023-05-10T04:21:04.397Z,11.01
2023-05-10T04:23:31.139Z,11.16
2023-05-10T04:26:02.240Z,11.30
2023-05-10T04:28:29.318Z,11.42
2023-05-10T04:31:09.831Z,11.58
2023-05-10T04:33:37.416Z,11.78
2023-05-10T04:36:04.629Z,12.00
2023-05-10T04:38:32.229Z,12.25
2023-05-10T04:41:09.608Z,12.46
2023-05-10T04:43:36.597Z,12.66
2023-05-10T04:46:04.163Z,12.84
2023-05-10T04:48:31.057Z,12.99
2023-05-10T04:52:10.266Z,13.17
2023-05-10T04:54:37.804Z,13.28
2023-05-10T04:57:04.832Z,13.30
2023-05-10T04:59:31.800Z,13.36
2023-05-10T05:01:59.743Z,13.43
2023-05-10T05:04:26.954Z,13.59
2023-05-10T05:06:54.199Z,13.80
2023-05-10T05:09:21.389Z,14.00
2023-05-10T05:11:48.370Z,14.22
2023-05-10T05:14:15.422Z,14.49
2023-05-10T05:16:42.539Z,14.71
2023-05-10T05:19:09.472Z,14.89
2023-05-10T05:21:36.726Z,14.97
2023-05-10T05:24:04.045Z,15.00
2023-05-10T05:26:31.064Z,15.02
2023-05-10T05:28:58.004Z,15.01
2023-05-10T05:31:25.156Z,15.04
2023-05-10T05:33:52.409Z,15.18
2023-05-10T05:36:19.429Z,15.33
2023-05-10T05:38:46.483Z,15.47
2023-05-10T05:41:13.500Z,15.51
2023-05-10T05:43:40.506Z,15.48
2023-05-10T05:46:07.569Z,15.35
2023-05-10T05:48:34.547Z,15.27
2023-05-10T05:51:01.699Z,15.25
2023-05-10T05:53:29.329Z,15.25
2023-05-10T05:55:57.496Z,15.13
2023-05-10T05:58:25.506Z,14.98
2023-05-10T06:00:53.141Z,14.83
2023-05-10T06:03:20.343Z,14.74
2023-05-10T06:05:47.612Z,14.61
2023-05-10T06:08:14.917Z,14.51
2023-05-10T06:10:41.834Z,14.55
2023-05-10T06:13:09.087Z,14.69
2023-05-10T06:15:36.221Z,14.81
2023-05-10T06:18:03.531Z,14.89
2023-05-10T06:20:35.081Z,14.95
2023-05-10T06:23:02.158Z,14.98
2023-05-10T06:25:29.099Z,15.00
2023-05-10T06:27:58.895Z,14.99
2023-05-10T06:30:30.199Z,14.87
2023-05-10T06:32:57.748Z,14.74
2023-05-10T06:35:25.309Z,14.68
2023-05-10T06:37:52.677Z,14.65
2023-05-10T06:40:19.988Z,14.67
2023-05-10T06:42:48.676Z,14.80
2023-05-10T06:45:16.623Z,15.03
2023-05-10T06:47:44.061Z,15.42
2023-05-10T06:50:12.586Z,15.78
2023-05-10T06:52:39.886Z,16.12
2023-05-10T06:55:12.168Z,16.41
2023-05-10T06:57:39.176Z,16.59
2023-05-10T07:00:06.980Z,16.61
2023-05-10T07:02:34.106Z,16.55
2023-05-10T07:05:03.133Z,16.59
2023-05-10T07:07:31.202Z,16.56
2023-05-10T07:09:59.486Z,16.57
2023-05-10T07:12:27.813Z,16.55
2023-05-10T07:14:55.766Z,16.57
2023-05-10T07:17:24.941Z,16.72
2023-05-10T07:19:56.455Z,17.09
2023-05-10T07:22:23.911Z,17.49
2023-05-10T07:24:51.349Z,17.86
2023-05-10T07:27:18.467Z,18.14
2023-05-10T07:29:46.120Z,18.31
2023-05-10T07:32:13.884Z,18.41
2023-05-10T07:34:41.484Z,18.32
2023-05-10T07:37:08.592Z,18.08
2023-05-10T07:39:35.671Z,17.84
2023-05-10T07:42:04.002Z,17.60
2023-05-10T07:44:31.099Z,17.33
2023-05-10T07:46:58.845Z,16.99
2023-05-10T07:49:26.841Z,16.68
2023-05-10T07:51:55.365Z,16.40
2023-05-10T07:54:22.884Z,16.15
2023-05-10T07:56:53.168Z,16.01
2023-05-10T07:59:25.935Z,15.93
2023-05-10T08:02:08.171Z,15.89
2023-05-10T08:04:51.009Z,15.86
2023-05-10T08:07:20.208Z,15.77
2023-05-10T08:09:53.420Z,15.63
2023-05-10T08:12:34.416Z,15.51
2023-05-10T08:15:15.611Z,15.50
2023-05-10T08:24:18.877Z,15.81
2023-05-10T08:26:47.135Z,15.84
2023-05-10T08:29:17.287Z,15.83
2023-05-10T08:31:44.340Z,15.77
2023-05-10T08:34:11.581Z,15.68
2023-05-10T08:36:38.687Z,15.55
2023-05-10T08:39:07.736Z,15.50
2023-05-10T08:41:38.519Z,15.50
2023-05-10T08:44:06.770Z,15.56
2023-05-10T08:46:36.075Z,15.70
2023-05-10T08:49:04.345Z,15.91
2023-05-10T08:51:33.264Z,16.09
2023-05-10T08:54:03.864Z,16.23
2023-05-10T08:56:31.053Z,16.30
2023-05-10T08:58:58.222Z,16.33
2023-05-10T09:01:25.336Z,16.29
2023-05-10T09:03:52.793Z,16.17
2023-05-10T09:06:20.072Z,16.00
2023-05-10T09:08:47.129Z,15.78
2023-05-10T09:11:14.494Z,15.52
2023-05-10T09:13:41.492Z,15.30
2023-05-10T09:16:20.591Z,15.06
2023-05-10T09:18:50.792Z,14.88
2023-05-10T09:21:18.508Z,14.81
2023-05-10T09:23:51.274Z,14.83
2023-05-10T09:26:18.914Z,14.95
2023-05-10T09:28:53.856Z,15.12
2023-05-10T09:31:21.513Z,15.30
2023-05-10T09:33:49.809Z,15.43
2023-05-10T09:36:19.977Z,15.45
2023-05-10T09:38:52.973Z,15.35
2023-05-10T09:41:21.809Z,15.14
2023-05-10T09:43:48.977Z,14.89
2023-05-10T09:46:17.407Z,14.69
2023-05-10T09:48:55.812Z,14.55
2023-05-10T09:51:25.259Z,14.50
2023-05-10T09:54:12.884Z,14.54
2023-05-10T09:56:41.583Z,14.67
2023-05-10T09:59:12.084Z,14.85
2023-05-10T10:01:39.849Z,15.05
2023-05-10T10:04:08.536Z,15.22
2023-05-10T10:06:39.604Z,15.38
2023-05-10T10:09:07.681Z,15.52
2023-05-10T10:11:40.129Z,15.65
2023-05-10T10:14:07.449Z,15.83
2023-05-10T10:16:34.570Z,16.01
2023-05-10T10:19:01.894Z,16.21
2023-05-10T10:21:29.146Z,16.41
2023-05-10T10:23:57.132Z,16.62
2023-05-10T10:26:24.094Z,16.83
2023-05-10T10:29:21.309Z,17.06
2023-05-10T10:32:12.810Z,17.46
2023-05-10T10:34:39.926Z,17.99
2023-05-10T10:37:07.690Z,18.41
2023-05-10T10:39:37.843Z,18.60
2023-05-10T10:42:05.461Z,18.61
2023-05-10T10:44:37.846Z,18.42
2023-05-10T10:47:24.359Z,18.17
2023-05-10T10:50:03.920Z,17.75
2023-05-10T10:52:44.285Z,17.32
2023-05-10T10:55:16.461Z,16.95
2023-05-10T10:57:52.877Z,16.65
2023-05-10T11:00:21.450Z,16.30
2023-05-10T11:02:52.738Z,15.98
2023-05-10T11:05:26.297Z,15.82
2023-05-10T11:07:58.095Z,15.66
2023-05-10T11:10:26.050Z,15.57
2023-05-10T11:13:10.372Z,15.51
2023-05-10T11:15:40.108Z,15.50
2023-05-10T11:18:20.685Z,15.52
2023-05-10T11:21:01.450Z,15.57
2023-05-10T11:23:58.625Z,15.66
2023-05-10T11:26:36.321Z,15.70
2023-05-10T11:29:04.503Z,15.78
2023-05-10T11:31:32.460Z,15.80
2023-05-10T11:34:05.132Z,15.83
2023-05-10T11:36:36.242Z,15.94
2023-05-10T11:39:13.061Z,16.02
2023-05-10T11:41:42.847Z,16.09
2023-05-10T11:44:10.494Z,16.15
2023-05-10T11:46:38.420Z,16.10
2023-05-10T11:49:08.463Z,15.97
2023-05-10T11:51:37.188Z,15.91
2023-05-10T11:54:09.595Z,15.93
2023-05-10T11:56:38.154Z,15.94
2023-05-10T11:59:05.226Z,15.99
2023-05-10T12:01:32.226Z,16.06
2023-05-10T12:04:01.597Z,16.14
2023-05-10T12:06:30.847Z,16.16
2023-05-10T12:08:58.067Z,16.24
2023-05-10T12:11:30.234Z,16.33
2023-05-10T12:13:57.774Z,16.41
2023-05-10T12:16:27.123Z,16.50
2023-05-10T12:19:00.061Z,16.61
2023-05-10T12:21:27.435Z,16.63
2023-05-10T12:23:58.575Z,16.60
2023-05-10T12:26:27.604Z,16.62
2023-05-10T12:28:55.405Z,16.60
2023-05-10T12:31:22.452Z,16.57
2023-05-10T12:33:50.534Z,16.50
2023-05-10T12:36:17.771Z,16.36
2023-05-10T12:38:49.124Z,16.27
2023-05-10T12:41:17.694Z,16.26
2023-05-10T12:43:44.953Z,16.26
2023-05-10T12:46:18.426Z,16.27
2023-05-10T12:48:47.387Z,16.32
2023-05-10T12:51:16.886Z,16.34
2023-05-10T12:53:46.109Z,16.36
2023-05-10T12:56:14.426Z,16.35
2023-05-10T12:58:41.570Z,16.32
2023-05-10T13:01:09.612Z,16.31
2023-05-10T13:03:36.930Z,16.31
2023-05-10T13:06:03.984Z,16.25
2023-05-10T13:08:34.744Z,16.15
2023-05-10T13:11:02.898Z,16.05
2023-05-10T13:13:30.005Z,15.83
2023-05-10T13:15:57.019Z,15.57
2023-05-10T13:18:25.504Z,15.40
2023-05-10T13:20:52.598Z,15.26
2023-05-10T13:23:19.712Z,15.14
2023-05-10T13:25:49.232Z,15.02
2023-05-10T13:28:16.409Z,14.90
2023-05-10T13:30:43.819Z,14.80
2023-05-10T13:33:11.143Z,14.68
2023-05-10T13:35:38.226Z,14.59
2023-05-10T13:38:05.444Z,14.56
2023-05-10T13:40:32.576Z,14.55
2023-05-10T13:43:00.463Z,14.55
2023-05-10T13:45:27.572Z,14.49
2023-05-10T13:47:54.832Z,14.45
2023-05-10T13:50:22.699Z,14.44
2023-05-10T13:52:50.007Z,14.45
2023-05-10T13:58:07.923Z,14.48
2023-05-10T14:00:36.901Z,14.46
2023-05-10T14:03:06.194Z,14.43
2023-05-10T14:05:33.928Z,14.40
2023-05-10T14:08:01.516Z,14.38
2023-05-10T14:10:28.788Z,14.39
2023-05-10T14:12:55.921Z,14.41
2023-05-10T14:15:23.581Z,14.46
2023-05-10T14:17:50.836Z,14.50
2023-05-10T14:20:17.856Z,14.54
2023-05-10T14:22:44.935Z,14.58
2023-05-10T14:25:12.562Z,14.64
2023-05-10T14:27:39.506Z,14.70
2023-05-10T14:30:07.252Z,14.74
2023-05-10T14:32:35.190Z,14.76
2023-05-10T14:35:02.187Z,14.78
2023-05-10T14:37:29.224Z,14.78
2023-05-10T14:39:56.196Z,14.75
2023-05-10T14:42:23.233Z,14.73
2023-05-10T14:44:50.421Z,14.71
2023-05-10T14:47:17.359Z,14.70
2023-05-10T14:49:44.350Z,14.70
2023-05-10T14:52:15.512Z,14.71
2023-05-10T14:54:42.748Z,14.70
2023-05-10T14:57:09.862Z,14.68
2023-05-10T14:59:37.056Z,14.67
2023-05-10T15:02:05.468Z,14.66
2023-05-10T15:04:33.314Z,14.63
2023-05-10T15:07:01.775Z,14.60
2023-05-10T15:09:28.921Z,14.57
2023-05-10T15:11:56.426Z,14.54
2023-05-10T15:14:24.135Z,14.50
2023-05-10T15:16:51.306Z,14.45
2023-05-10T15:19:18.347Z,14.41
2023-05-10T15:21:45.850Z,14.37
2023-05-10T15:24:12.778Z,14.35
2023-05-10T15:26:39.741Z,14.35
2023-05-10T15:29:06.865Z,14.36
2023-05-10T15:31:36.281Z,14.38
2023-05-10T15:34:03.403Z,14.37
2023-05-10T15:36:30.385Z,14.35
2023-05-10T15:38:57.365Z,14.31
2023-05-10T15:41:24.910Z,14.29
2023-05-10T15:43:51.972Z,14.26
2023-05-10T15:46:19.099Z,14.22
2023-05-10T15:48:46.204Z,14.18
2023-05-10T15:51:13.447Z,14.14
2023-05-10T15:53:49.496Z,14.09
2023-05-10T15:56:23.931Z,14.02
2023-05-10T15:58:51.483Z,13.96
2023-05-10T16:01:18.613Z,13.91
2023-05-10T16:03:45.920Z,13.86
2023-05-10T16:06:12.864Z,13.80
2023-05-10T16:08:39.888Z,13.75
2023-05-10T16:11:07.786Z,13.69
2023-05-10T16:13:34.955Z,13.63
2023-05-10T16:16:02.041Z,13.57
2023-05-10T16:18:29.244Z,13.51
2023-05-10T16:20:56.263Z,13.47
2023-05-10T16:23:23.247Z,13.45
2023-05-10T16:25:50.570Z,13.44
2023-05-10T16:28:18.562Z,13.41
2023-05-10T16:30:47.520Z,13.41
2023-05-10T16:33:14.789Z,13.39
2023-05-10T16:35:41.712Z,13.36
2023-05-10T16:38:08.703Z,13.31
2023-05-10T16:40:35.854Z,13.26
2023-05-10T16:43:02.767Z,13.22
2023-05-10T16:45:32.264Z,13.20
2023-05-10T16:47:59.410Z,13.17
2023-05-10T16:50:26.407Z,13.13
2023-05-10T16:52:53.297Z,13.09
2023-05-10T16:55:20.857Z,13.04
2023-05-10T16:57:49.671Z,12.99
2023-05-10T17:00:17.168Z,12.95
2023-05-10T17:02:44.299Z,12.92
2023-05-10T17:05:11.630Z,12.88
2023-05-10T17:08:54.504Z,12.84
2023-05-10T17:11:21.952Z,12.76
2023-05-10T17:13:49.085Z,12.71
2023-05-10T17:16:16.182Z,12.67
2023-05-10T17:18:45.238Z,12.61
2023-05-10T17:21:12.310Z,12.55
2023-05-10T17:23:39.178Z,12.50
2023-05-10T17:26:06.269Z,12.42
2023-05-10T17:28:33.498Z,12.35
2023-05-10T17:31:02.468Z,12.28
2023-05-10T17:33:29.741Z,12.20
2023-05-10T17:35:57.640Z,12.11
2023-05-10T17:38:24.938Z,12.02
2023-05-10T17:40:51.885Z,11.92
2023-05-10T17:43:19.698Z,11.82
2023-05-10T17:45:49.816Z,11.72
2023-05-10T17:48:17.265Z,11.62
2023-05-10T17:50:44.641Z,11.53
2023-05-10T17:53:11.465Z,11.46
2023-05-10T17:55:41.642Z,11.38
2023-05-10T17:58:10.609Z,11.30
2023-05-10T18:00:38.683Z,11.23
2023-05-10T18:03:05.677Z,11.13
2023-05-10T18:05:37.168Z,11.08
2023-05-10T18:08:04.978Z,11.05
2023-05-10T18:10:32.080Z,11.01
2023-05-10T18:13:00.034Z,10.95
2023-05-10T18:15:27.585Z,10.89
2023-05-10T18:17:56.148Z,10.84
2023-05-10T18:20:23.044Z,10.77
2023-05-10T18:22:51.481Z,10.70
2023-05-10T18:25:19.587Z,10.61
2023-05-10T18:27:47.232Z,10.53
2023-05-10T18:30:14.337Z,10.46
2023-05-10T18:32:42.488Z,10.41
2023-05-10T18:35:10.663Z,10.35
2023-05-10T18:37:39.479Z,10.30
2023-05-10T18:40:13.976Z,10.26
2023-05-10T18:42:46.937Z,10.23
2023-05-10T18:45:23.074Z,10.20
2023-05-10T18:47:51.010Z,10.17
2023-05-10T18:50:19.821Z,10.13
2023-05-10T18:52:46.945Z,10.10
2023-05-10T18:55:14.101Z,10.06
2023-05-10T18:57:41.518Z,10.03
2023-05-10T19:00:09.984Z,10.00
2023-05-10T19:02:40.417Z,9.96
2023-05-10T19:05:08.256Z,9.92
2023-05-10T19:07:36.494Z,9.88
2023-05-10T19:10:03.639Z,9.84
2023-05-10T19:12:31.350Z,9.80
2023-05-10T19:14:58.368Z,9.77
2023-05-10T19:17:27.281Z,9.74
2023-05-10T19:19:56.919Z,9.72
2023-05-10T19:22:43.570Z,9.70
2023-05-10T19:25:16.747Z,9.69
2023-05-10T19:27:43.892Z,9.69
2023-05-10T19:30:11.419Z,9.70
2023-05-10T19:32:39.590Z,9.72
2023-05-10T19:35:06.905Z,9.73
2023-05-10T19:37:34.595Z,9.75
2023-05-10T19:40:01.679Z,9.77
2023-05-10T19:42:29.017Z,9.77
2023-05-10T19:44:55.935Z,9.74
2023-05-10T19:47:22.957Z,9.71
2023-05-10T19:49:49.893Z,9.66
2023-05-10T19:52:16.899Z,9.61
2023-05-10T19:54:44.318Z,9.55
2023-05-10T19:57:12.168Z,9.49
2023-05-10T19:59:41.070Z,9.43
2023-05-10T20:02:07.976Z,9.34
2023-05-10T20:04:34.805Z,9.29
2023-05-10T20:07:01.643Z,9.24
2023-05-10T20:09:28.589Z,9.21
2023-05-10T20:12:01.795Z,9.16
2023-05-10T20:14:29.490Z,9.14
2023-05-10T20:16:57.334Z,9.13
2023-05-10T20:19:25.187Z,9.12
2023-05-10T20:21:52.093Z,9.06
2023-05-10T20:24:18.931Z,9.00
2023-05-10T20:26:46.792Z,8.97
2023-05-10T20:29:13.632Z,8.94
2023-05-10T20:31:40.648Z,8.89
2023-05-10T20:34:07.402Z,8.83
2023-05-10T20:36:34.371Z,8.76
2023-05-10T20:39:01.173Z,8.66
2023-05-10T20:41:28.469Z,8.58
2023-05-10T20:43:55.290Z,8.51
2023-05-10T20:46:22.660Z,8.43
2023-05-10T20:48:49.509Z,8.40
2023-05-10T20:51:16.353Z,8.36
2023-05-10T20:53:43.200Z,8.34
2023-05-10T20:56:10.152Z,8.34
2023-05-10T20:58:36.906Z,8.34
2023-05-10T21:01:04.436Z,8.33
2023-05-10T21:03:31.604Z,8.30
2023-05-10T21:05:58.406Z,8.28
2023-05-10T21:08:25.452Z,8.25
2023-05-10T21:10:53.068Z,8.17
2023-05-10T21:13:20.179Z,8.12
2023-05-10T21:15:47.409Z,8.06
2023-05-10T21:18:14.209Z,8.01
2023-05-10T21:20:41.235Z,7.97
2023-05-10T21:23:08.197Z,7.94
2023-05-10T21:25:35.773Z,7.90
2023-05-10T21:28:02.593Z,7.87
2023-05-10T21:30:29.583Z,7.87
2023-05-10T21:32:59.010Z,7.88
2023-05-10T21:35:25.889Z,7.90
2023-05-10T21:37:53.311Z,7.90
2023-05-10T21:40:20.437Z,7.87
2023-05-10T21:42:51.971Z,7.84
2023-05-10T21:45:19.159Z,7.79
2023-05-10T21:47:46.183Z,7.72
2023-05-10T21:50:13.250Z,7.67
2023-05-10T21:52:40.352Z,7.64
2023-05-10T21:55:08.012Z,7.62
2023-05-10T21:57:35.907Z,7.59
2023-05-10T22:00:03.135Z,7.58
2023-05-10T22:02:31.576Z,7.58
2023-05-10T22:04:58.608Z,7.58
2023-05-10T22:07:25.923Z,7.60
2023-05-10T22:09:52.689Z,7.62
2023-05-10T22:12:19.919Z,7.63
2023-05-10T22:14:48.645Z,7.64
2023-05-10T22:17:18.617Z,7.62
2023-05-10T22:19:45.418Z,7.59
2023-05-10T22:22:12.316Z,7.56
2023-05-10T22:24:39.081Z,7.54
2023-05-10T22:27:06.371Z,7.54
2023-05-10T22:29:33.420Z,7.54
2023-05-10T22:32:04.982Z,7.57
2023-05-10T22:34:32.361Z,7.59
2023-05-10T22:36:59.234Z,7.63
2023-05-10T22:39:26.515Z,7.70
2023-05-10T22:41:53.480Z,7.75
2023-05-10T22:44:20.563Z,7.79
2023-05-10T22:46:47.496Z,7.81
2023-05-10T22:49:14.308Z,7.82
2023-05-10T22:51:41.436Z,7.83
2023-05-10T22:54:08.314Z,7.84
2023-05-10T22:56:35.274Z,7.83
2023-05-10T22:59:02.683Z,7.84
2023-05-10T23:01:29.697Z,7.85
2023-05-10T23:03:56.776Z,7.86
2023-05-10T23:06:23.956Z,7.87
2023-05-10T23:08:51.498Z,7.88
2023-05-10T23:11:18.314Z,7.92
2023-05-10T23:13:45.403Z,7.94
2023-05-10T23:16:12.786Z,7.98
2023-05-10T23:18:41.937Z,7.99
2023-05-10T23:21:08.931Z,7.98
2023-05-10T23:23:36.740Z,7.95
2023-05-10T23:26:04.937Z,7.91
2023-05-10T23:28:32.203Z,7.86
2023-05-10T23:30:59.276Z,7.83
2023-05-10T23:33:28.825Z,7.79
2023-05-10T23:35:56.018Z,7.76
2023-05-10T23:38:22.915Z,7.74
2023-05-10T23:40:50.007Z,7.72
2023-05-10T23:43:19.084Z,7.69
2023-05-10T23:45:55.432Z,7.66
2023-05-10T23:48:22.400Z,7.59
2023-05-10T23:50:49.288Z,7.53
2023-05-10T23:53:16.149Z,7.47
2023-05-10T23:55:43.122Z,7.42
2023-05-10T23:58:10.348Z,7.39
